Terminal Aerodrome Forecast
Issued by NWS

Home | Current Version | Previous Version | Text Only | Print | Product List | Glossary On
Versions: 1 2 3 4 5 6 7 8 9 10 11 12 13 14 15 16 17 18 19 20 21 22 23 24 25
000
FTUS43 KDLH 222100 AAA
TAFHYR
TAF AMD
KHYR 222153Z 2222/2318 21011KT P6SM SCT014
      TEMPO 2222/2224 5SM HZ
     FM230100 21011KT P6SM -SN OVC009
     FM230900 23008KT 3SM -FZRA BR BKN014 OVC030
     FM231500 25007KT 6SM -SNPL OVC007=

USA.gov is the U.S. government's official web portal to all federal, state and local government web resources and services.